Time;durP1;ratioP1;P1;durP2;ratioP2;P2;SDS_P1;SDS_P2;PMS_P1;PMS_P2;Temp;Humidity;BMP_temperature;BMP_pressure;BME280_temperature;BME280_humidity;BME280_pressure;Samples;Min_cycle;Max_cycle;Signal;HPM_P1;HPM_P2
2022/04/28 00:05:53;;;;;;;65.62;34.27;;;;;;;7.01;87.99;99724.84;4242986;82;21640;-89
2022/04/28 00:11:55;;;;;;;64.95;37.63;;;;;;;7.02;88.19;99732.42;4239666;82;21076;-89
2022/04/28 00:17:56;;;;;;;60.78;35.35;;;;;;;6.94;87.96;99736.04;4240699;82;21083;-89
2022/04/28 00:24:02;;;;;;;59.15;35.08;;;;;;;6.84;88.38;99733.16;4251171;82;21100;-90
2022/04/28 00:30:06;;;;;;;65.65;35.90;;;;;;;6.81;88.63;99728.38;4229768;82;21177;-89
2022/04/28 00:36:10;;;;;;;54.63;31.80;;;;;;;6.77;88.77;99727.98;4233862;82;21055;-89
2022/04/28 00:42:14;;;;;;;50.70;28.12;;;;;;;6.75;89.20;99724.82;4231943;82;21094;-89
2022/04/28 00:54:37;;;;;;;48.10;26.80;;;;;;;6.57;89.09;99731.50;4206790;83;21176;-89
2022/04/28 01:00:40;;;;;;;49.98;29.85;;;;;;;6.63;89.54;99732.34;4231268;82;21598;-88
2022/04/28 01:06:42;;;;;;;56.15;29.40;;;;;;;6.56;88.51;99734.00;4233348;82;21539;-91
2022/04/28 01:12:43;;;;;;;61.42;31.75;;;;;;;6.41;89.68;99736.72;4160744;84;22010;-88
2022/04/28 01:18:45;;;;;;;47.55;28.73;;;;;;;6.52;89.97;99742.02;4235796;82;21049;-90
2022/04/28 01:24:46;;;;;;;51.40;29.63;;;;;;;6.58;90.05;99739.33;4225273;83;21064;-88
2022/04/28 01:30:48;;;;;;;53.08;30.55;;;;;;;6.57;90.10;99739.11;4222518;83;21067;-88
2022/04/28 01:36:50;;;;;;;44.13;25.48;;;;;;;6.53;89.87;99734.08;4228302;83;21061;-90
2022/04/28 01:42:52;;;;;;;48.50;28.92;;;;;;;6.45;90.55;99733.59;4226539;83;21113;-91
2022/04/28 01:48:55;;;;;;;47.78;26.37;;;;;;;6.44;90.30;99733.92;4229415;83;21057;-89
2022/04/28 01:55:05;;;;;;;45.30;26.82;;;;;;;6.44;90.98;99734.70;4222325;83;21066;-88
2022/04/28 02:01:20;;;;;;;52.90;31.17;;;;;;;6.49;90.79;99738.59;4220927;82;21149;-92
2022/04/28 02:07:22;;;;;;;47.30;28.27;;;;;;;6.40;90.48;99735.14;4226023;83;21042;-89
2022/04/28 02:13:23;;;;;;;57.75;33.10;;;;;;;6.32;91.08;99734.63;4231562;83;21545;-90
2022/04/28 02:19:34;;;;;;;52.05;32.15;;;;;;;6.29;91.12;99744.25;4235341;82;21064;-88
2022/04/28 02:25:36;;;;;;;53.63;31.17;;;;;;;6.27;91.13;99736.16;4243507;82;21052;-88
2022/04/28 02:31:38;;;;;;;54.27;31.68;;;;;;;6.21;91.50;99737.48;4251388;82;21720;-88
2022/04/28 02:37:40;;;;;;;49.30;28.42;;;;;;;6.17;91.17;99738.70;4254506;82;21125;-88
2022/04/28 02:43:42;;;;;;;44.80;28.23;;;;;;;6.13;91.54;99743.76;4253842;82;21638;-87
2022/04/28 02:49:48;;;;;;;43.03;27.03;;;;;;;6.13;91.56;99747.28;4251597;82;21017;-89
2022/04/28 02:55:50;;;;;;;52.98;29.85;;;;;;;6.10;91.61;99745.77;4245734;82;21508;-88
2022/04/28 03:01:52;;;;;;;55.80;29.32;;;;;;;6.06;91.49;99748.34;4240444;82;21082;-86
2022/04/28 03:14:15;;;;;;;48.20;28.87;;;;;;;5.92;91.27;99748.34;4249451;82;21086;-90
2022/04/28 03:20:18;;;;;;;48.78;29.25;;;;;;;5.78;91.28;99764.03;4252959;81;21611;-88
2022/04/28 03:26:20;;;;;;;53.17;29.67;;;;;;;5.59;91.37;99768.45;4234254;82;21054;-90
2022/04/28 03:32:22;;;;;;;45.80;27.55;;;;;;;5.50;91.29;99777.73;4137835;84;21053;-87
2022/04/28 03:38:28;;;;;;;38.45;21.68;;;;;;;5.39;91.39;99776.47;4213589;83;21064;-87
2022/04/28 03:44:30;;;;;;;47.03;25.10;;;;;;;5.31;91.57;99768.58;4244805;82;21057;-88
2022/04/28 03:50:32;;;;;;;49.35;28.67;;;;;;;5.28;91.71;99767.09;4238443;82;21074;-88
2022/04/28 03:56:33;;;;;;;54.95;32.58;;;;;;;5.15;91.26;99771.58;4198401;83;47254;-88
2022/04/28 04:02:37;;;;;;;52.08;28.65;;;;;;;5.04;91.36;99779.80;4210423;83;21059;-88
2022/04/28 04:08:38;;;;;;;51.45;30.68;;;;;;;4.97;91.88;99778.66;4221227;83;21572;-88
2022/04/28 04:14:45;;;;;;;46.20;28.23;;;;;;;4.92;91.74;99777.48;4231732;83;21126;-88
2022/04/28 04:20:47;;;;;;;54.42;30.70;;;;;;;4.98;92.34;99781.05;4191833;83;22280;-92
2022/04/28 04:26:49;;;;;;;58.52;32.95;;;;;;;5.10;92.98;99787.20;4159146;84;21607;-87
2022/04/28 04:32:52;;;;;;;75.52;37.93;;;;;;;5.36;93.80;99799.64;4229155;82;21032;-91
2022/04/28 04:39:02;;;;;;;61.60;36.53;;;;;;;5.64;94.26;99814.45;4248027;81;21077;-88
2022/04/28 04:45:09;;;;;;;65.30;38.05;;;;;;;5.88;94.26;99819.39;4218634;82;21086;-92
2022/04/28 04:51:12;;;;;;;68.87;40.95;;;;;;;6.15;94.49;99825.20;4172590;83;21088;-90
2022/04/28 04:57:21;;;;;;;73.22;39.35;;;;;;;6.46;94.54;99818.13;4189065;83;21096;-89
2022/04/28 05:03:24;;;;;;;71.80;43.08;;;;;;;6.76;94.30;99825.72;4193404;83;21127;-90
2022/04/28 05:09:32;;;;;;;85.72;51.35;;;;;;;6.99;94.25;99829.73;4199758;83;21870;-91
2022/04/28 05:15:33;;;;;;;86.00;49.15;;;;;;;7.19;94.14;99824.30;4186365;83;21182;-90
2022/04/28 05:21:45;;;;;;;90.03;53.15;;;;;;;7.32;93.87;99830.05;4143985;85;22102;-88
2022/04/28 05:28:02;;;;;;;81.02;50.00;;;;;;;7.49;93.50;99835.89;4154685;84;21530;-89
2022/04/28 05:34:22;;;;;;;87.15;51.65;;;;;;;7.70;93.41;99840.77;4153903;84;21059;-90
2022/04/28 05:40:41;;;;;;;79.03;46.03;;;;;;;8.21;92.51;99846.22;4154900;84;21086;-90
2022/04/28 05:46:44;;;;;;;70.30;41.88;;;;;;;8.21;92.51;99846.22;4136744;84;24507;-88
2022/04/28 05:52:45;;;;;;;60.55;39.42;;;;;;;8.50;92.14;99860.52;4152989;84;21098;-91
2022/04/28 05:58:47;;;;;;;65.28;39.03;;;;;;;8.82;91.98;99866.98;4149709;84;21091;-87
2022/04/28 06:05:07;;;;;;;56.18;35.68;;;;;;;9.24;91.52;99862.83;4181241;83;21564;-88
2022/04/28 06:11:09;;;;;;;64.67;36.98;;;;;;;9.73;90.99;99865.64;4176937;83;21696;-89
2022/04/28 06:17:13;;;;;;;59.10;34.38;;;;;;;10.19;90.10;99863.63;4200966;81;21018;-87
2022/04/28 06:23:15;;;;;;;59.30;34.65;;;;;;;10.62;89.28;99861.38;4289934;81;21120;-88
2022/04/28 06:29:21;;;;;;;52.85;32.30;;;;;;;10.87;88.39;99866.31;4289414;81;21045;-89
2022/04/28 06:35:23;;;;;;;55.73;31.97;;;;;;;11.02;85.43;99864.10;4288901;81;21643;-90
2022/04/28 06:41:24;;;;;;;42.50;24.87;;;;;;;11.25;87.38;99859.32;4290113;81;21091;-87
2022/04/28 06:47:28;;;;;;;38.53;25.02;;;;;;;11.63;86.40;99863.52;4287267;81;21135;-89
2022/04/28 06:53:48;;;;;;;38.20;21.85;;;;;;;11.89;85.42;99868.55;4215484;83;21100;-88
2022/04/28 06:59:53;;;;;;;26.95;17.62;;;;;;;12.06;84.57;99871.41;4228167;83;21021;-90
2022/04/28 07:05:56;;;;;;;26.57;16.97;;;;;;;12.10;83.53;99868.17;4235561;83;21076;-88
2022/04/28 07:11:57;;;;;;;23.00;16.45;;;;;;;12.21;82.90;99874.66;4283929;81;21087;-90
2022/04/28 07:18:17;;;;;;;23.40;14.30;;;;;;;12.51;81.72;99874.98;4282850;81;21072;-87
2022/04/28 07:24:19;;;;;;;24.00;14.95;;;;;;;12.73;80.39;99871.23;4285843;81;21946;-87
2022/04/28 07:30:21;;;;;;;26.73;15.58;;;;;;;12.98;80.37;99875.98;4288443;81;22298;-89
2022/04/28 07:36:23;;;;;;;23.07;14.70;;;;;;;13.10;78.50;99870.86;4289256;81;21066;-89
2022/04/28 07:42:43;;;;;;;20.37;13.88;;;;;;;13.57;77.54;99873.31;4286033;81;21084;-93
2022/04/28 07:48:45;;;;;;;21.45;11.90;;;;;;;14.23;76.79;99877.41;4282302;81;21597;-91
2022/04/28 07:54:47;;;;;;;16.45;11.65;;;;;;;14.95;71.84;99877.72;4264773;82;21060;-87
2022/04/28 08:00:49;;;;;;;14.40;9.08;;;;;;;15.42;72.97;99881.00;4294897;81;21557;-88
2022/04/28 08:06:51;;;;;;;11.65;7.87;;;;;;;15.96;71.88;99884.22;4281725;82;21088;-88
2022/04/28 08:12:52;;;;;;;11.45;6.83;;;;;;;16.24;63.39;99886.45;4200381;83;21040;-89
2022/04/28 08:19:09;;;;;;;10.50;7.62;;;;;;;16.53;67.16;99882.61;4216137;81;21134;-90
2022/04/28 08:25:28;;;;;;;9.60;5.90;;;;;;;16.63;66.08;99880.42;4294273;81;22124;-88
2022/04/28 08:31:32;;;;;;;8.78;5.17;;;;;;;16.76;63.42;99879.45;4299724;81;21077;-89
2022/04/28 08:37:36;;;;;;;10.28;6.17;;;;;;;17.33;60.66;99878.22;4265248;81;21011;-88
2022/04/28 08:43:42;;;;;;;12.20;6.03;;;;;;;16.62;60.42;99885.77;4267843;81;21027;-87
2022/04/28 08:49:48;;;;;;;7.10;4.25;;;;;;;16.79;56.70;99888.33;4249380;81;21140;-89
2022/04/28 08:55:57;;;;;;;6.50;4.28;;;;;;;16.95;56.53;99890.11;4295292;81;21072;-88
2022/04/28 09:01:57;;;;;;;6.50;3.75;;;;;;;16.36;57.87;99878.39;4295110;81;20991;-89
2022/04/28 09:08:18;;;;;;;9.30;4.92;;;;;;;16.15;52.67;99882.48;4241169;81;21217;-93
2022/04/28 09:14:46;;;;;;;6.62;4.05;;;;;;;16.64;52.67;99882.03;4255081;81;21111;-87
2022/04/28 09:20:50;;;;;;;5.08;4.20;;;;;;;16.56;49.86;99882.40;4185913;82;21034;-87
2022/04/28 09:26:55;;;;;;;8.08;4.08;;;;;;;16.42;52.79;99873.48;4230997;82;21918;-88
2022/04/28 09:33:07;;;;;;;5.92;4.30;;;;;;;16.24;53.45;99877.39;4227300;82;21659;-87
2022/04/28 09:45:50;;;;;;;5.05;3.77;;;;;;;17.16;52.30;99876.28;4224205;82;21091;-87
2022/04/28 09:51:58;;;;;;;4.12;3.42;;;;;;;18.60;49.74;99877.86;4236031;82;21689;-92
2022/04/28 09:58:07;;;;;;;6.22;3.62;;;;;;;18.53;49.28;99872.38;4139970;84;21388;-90
2022/04/28 10:04:08;;;;;;;6.87;3.75;;;;;;;18.60;47.16;99873.70;4162238;82;21111;-94
2022/04/28 10:10:12;;;;;;;4.50;2.70;;;;;;;19.39;47.74;99870.45;4180736;83;21008;-90
2022/04/28 10:16:16;;;;;;;2.37;1.90;;;;;;;20.25;47.07;99871.83;4173707;83;21600;-88
2022/04/28 10:22:25;;;;;;;3.65;1.72;;;;;;;20.31;38.98;99857.04;4216163;82;21014;-90
2022/04/28 10:35:07;;;;;;;6.92;2.30;;;;;;;19.37;39.77;99861.77;4225695;83;21080;-86
2022/04/28 10:41:13;;;;;;;4.55;2.40;;;;;;;18.13;39.15;99859.75;4191628;83;21860;-89
2022/04/28 10:47:23;;;;;;;;;;;;;;;17.56;38.34;99870.28;4214997;83;21051;-88
2022/04/28 10:53:25;;;;;;;4.55;2.42;;;;;;;17.28;38.57;99864.78;4190127;83;20162;-89
2022/04/28 10:59:34;;;;;;;4.85;2.60;;;;;;;17.21;39.54;99870.34;4198356;83;21029;-87
2022/04/28 11:05:40;;;;;;;4.40;2.33;;;;;;;18.68;40.73;99858.59;4212717;83;21071;-88
2022/04/28 11:11:46;;;;;;;4.95;2.67;;;;;;;20.35;39.63;99848.63;4209085;83;21109;-88
2022/04/28 11:17:47;;;;;;;3.42;2.52;;;;;;;20.53;35.54;99858.27;4204702;82;21691;-88
2022/04/28 11:23:51;;;;;;;5.00;2.58;;;;;;;18.88;36.67;99860.81;4123288;85;21051;-91
2022/04/28 11:30:14;;;;;;;4.17;2.80;;;;;;;19.30;38.03;99850.13;4186983;83;21588;-92
2022/04/28 11:36:28;;;;;;;4.40;2.35;;;;;;;20.77;37.97;99850.73;4192177;83;21097;-89
2022/04/28 11:42:33;;;;;;;3.58;2.30;;;;;;;22.06;36.17;99850.91;4152733;84;21585;-89
2022/04/28 11:48:35;;;;;;;3.90;2.42;;;;;;;22.08;35.03;99851.27;4160269;84;21801;-90
2022/04/28 11:54:36;;;;;;;2.85;1.92;;;;;;;20.19;35.06;99853.42;4155641;84;21043;-91
2022/04/28 12:00:44;;;;;;;3.22;2.50;;;;;;;19.46;36.19;99850.95;4163088;84;21100;-88
2022/04/28 12:06:49;;;;;;;3.85;2.08;;;;;;;19.60;34.55;99849.41;4161496;84;21102;-89
2022/04/28 12:19:22;;;;;;;4.97;2.00;;;;;;;20.89;34.65;99832.84;4181722;83;21090;-87
2022/04/28 12:25:25;;;;;;;5.03;2.05;;;;;;;20.58;34.53;99837.56;4213862;83;21036;-89
2022/04/28 12:31:31;;;;;;;2.60;2.10;;;;;;;20.69;34.14;99827.81;4216697;82;21049;-89
2022/04/28 12:37:41;;;;;;;4.50;2.17;;;;;;;20.04;33.29;99825.62;4217844;82;21462;-89
2022/04/28 12:43:51;;;;;;;7.97;2.50;;;;;;;18.87;33.03;99831.51;4208712;82;21015;-86
2022/04/28 12:49:52;;;;;;;5.37;2.12;;;;;;;17.98;33.40;99834.09;4207309;83;21604;-89
2022/04/28 12:56:10;;;;;;;5.05;2.30;;;;;;;17.51;34.39;99829.16;4221239;82;21040;-88
2022/04/28 13:02:18;;;;;;;3.85;2.27;;;;;;;17.52;34.89;99828.58;4221368;83;21407;-90
2022/04/28 13:08:19;;;;;;;3.90;2.27;;;;;;;17.93;34.93;99821.27;4192192;83;21043;-88
2022/04/28 13:14:22;;;;;;;3.02;2.05;;;;;;;18.24;34.92;99816.93;4217959;82;21092;-89
2022/04/28 13:20:24;;;;;;;7.80;2.58;;;;;;;18.80;35.20;99804.62;4223899;82;21097;-87
2022/04/28 13:26:30;;;;;;;3.22;1.80;;;;;;;18.57;35.06;99811.36;4239098;82;21726;-89
2022/04/28 13:32:32;;;;;;;2.72;1.55;;;;;;;18.73;35.44;99812.22;4276233;82;21040;-90
2022/04/28 13:38:35;;;;;;;3.15;1.90;;;;;;;19.54;34.94;99803.86;4266843;82;21076;-91
2022/04/28 13:44:36;;;;;;;4.25;2.15;;;;;;;19.65;34.31;99803.13;4261412;82;21719;-91
2022/04/28 13:50:39;;;;;;;3.98;2.40;;;;;;;19.89;32.02;99806.16;4267357;82;22042;-89
2022/04/28 13:56:41;;;;;;;1.80;1.47;;;;;;;20.22;34.09;99803.93;4267418;82;21095;-88
2022/04/28 14:02:43;;;;;;;4.97;1.57;;;;;;;20.33;33.85;99807.34;4261860;82;21554;-88
2022/04/28 14:08:45;;;;;;;3.58;1.95;;;;;;;20.01;33.82;99808.39;4264965;82;21022;-88
2022/04/28 14:14:47;;;;;;;3.98;2.40;;;;;;;19.19;33.71;99816.12;4262484;82;21086;-89
2022/04/28 14:20:51;;;;;;;6.40;2.75;;;;;;;18.23;34.27;99816.72;4270913;82;21078;-86
2022/04/28 14:26:53;;;;;;;5.72;2.87;;;;;;;17.49;34.88;99817.72;4251083;82;21109;-90
2022/04/28 14:32:54;;;;;;;4.28;2.95;;;;;;;17.08;35.67;99822.95;4279885;81;21062;-91
2022/04/28 14:38:56;;;;;;;7.58;3.02;;;;;;;16.84;35.95;99826.52;4187376;83;21676;-88
2022/04/28 14:44:57;;;;;;;7.30;2.72;;;;;;;16.88;36.46;99822.38;4253389;82;21051;-88
2022/04/28 14:57:32;;;;;;;4.33;2.40;;;;;;;16.90;37.09;99819.98;4236409;82;21078;-89
2022/04/28 15:03:37;;;;;;;4.75;2.50;;;;;;;16.91;37.15;99818.82;4202123;83;21409;-88
2022/04/28 15:09:37;;;;;;;4.75;2.45;;;;;;;17.26;37.39;99816.58;4207122;83;21464;-89
2022/04/28 15:15:40;;;;;;;4.55;2.35;;;;;;;17.15;37.44;99818.77;4223939;83;22403;-88
2022/04/28 15:21:43;;;;;;;7.42;2.95;;;;;;;16.88;37.37;99816.84;4195462;82;21107;-89
2022/04/28 15:27:45;;;;;;;7.85;2.87;;;;;;;16.63;37.70;99820.22;4193585;83;21642;-87
2022/04/28 15:33:47;;;;;;;7.28;3.30;;;;;;;16.41;38.06;99826.89;4190959;83;22107;-88
2022/04/28 15:39:48;;;;;;;4.60;3.05;;;;;;;16.18;38.29;99831.39;4199735;83;21080;-88
2022/04/28 15:45:50;;;;;;;5.55;3.10;;;;;;;16.21;38.37;99832.59;4194912;83;21070;-88
2022/04/28 15:51:51;;;;;;;4.45;2.95;;;;;;;16.33;38.33;99830.25;4187575;83;21134;-89
2022/04/28 15:57:54;;;;;;;4.87;2.75;;;;;;;16.42;38.31;99829.27;4206371;83;21151;-90
2022/04/28 16:03:56;;;;;;;6.53;3.02;;;;;;;16.48;37.93;99826.33;4204277;83;21718;-89
2022/04/28 16:09:58;;;;;;;8.83;2.90;;;;;;;16.48;37.77;99826.92;4201279;83;21086;-89
2022/04/28 16:15:59;;;;;;;5.47;2.70;;;;;;;16.51;38.25;99817.25;4205776;83;20998;-88
2022/04/28 16:22:02;;;;;;;5.20;2.85;;;;;;;16.52;38.30;99827.72;4197642;83;21077;-89
2022/04/28 16:28:09;;;;;;;8.33;3.00;;;;;;;16.51;38.02;99828.89;4207850;83;21022;-91
2022/04/28 16:34:12;;;;;;;5.45;3.17;;;;;;;16.51;37.87;99833.84;4202065;83;21064;-90
2022/04/28 16:40:13;;;;;;;7.08;2.80;;;;;;;16.44;38.16;99839.92;4205889;83;22065;-89
2022/04/28 16:46:15;;;;;;;11.05;4.00;;;;;;;16.30;38.13;99845.44;4286635;81;21526;-90
2022/04/28 16:52:17;;;;;;;5.53;2.83;;;;;;;16.13;38.34;99844.20;4259906;81;21027;-90
2022/04/28 16:58:21;;;;;;;9.15;3.45;;;;;;;16.00;38.52;99854.05;4284386;81;21092;-90
2022/04/28 17:04:27;;;;;;;3.65;2.92;;;;;;;15.90;38.77;99858.14;4279785;81;21032;-91
2022/04/28 17:10:30;;;;;;;5.67;3.35;;;;;;;15.78;38.82;99862.64;4276366;81;21067;-89
2022/04/28 17:16:33;;;;;;;8.03;4.30;;;;;;;15.68;39.09;99861.41;4282512;81;21056;-92
2022/04/28 17:22:40;;;;;;;8.25;3.47;;;;;;;15.60;39.62;99869.45;4201545;81;22083;-90
2022/04/28 17:28:42;;;;;;;7.28;4.53;;;;;;;15.46;39.88;99875.70;4035523;86;22324;-90
2022/04/28 17:34:46;;;;;;;7.35;4.12;;;;;;;15.12;40.60;99879.00;4114296;84;21064;-90
2022/04/28 17:40:47;;;;;;;12.45;6.53;;;;;;;14.89;40.87;99889.47;4134509;84;21094;-89
2022/04/28 17:46:48;;;;;;;7.55;4.60;;;;;;;14.68;41.26;99886.53;4009439;84;9999801;-89
2022/04/28 17:52:49;;;;;;;10.23;6.12;;;;;;;14.20;41.92;99893.92;4143370;84;21106;-91
2022/04/28 18:05:11;;;;;;;10.10;5.95;;;;;;;13.58;43.31;99904.34;4132873;84;21078;-89
2022/04/28 18:11:13;;;;;;;13.80;6.00;;;;;;;13.31;44.27;99914.58;4121109;84;21060;-90
2022/04/28 18:17:14;;;;;;;14.07;5.95;;;;;;;13.05;45.40;99935.20;4119831;84;21683;-91
2022/04/28 18:23:17;;;;;;;15.63;6.22;;;;;;;12.75;45.72;99942.50;4232590;81;21108;-89
2022/04/28 18:29:19;;;;;;;21.73;8.80;;;;;;;12.36;46.63;99957.48;4261645;81;21179;-89
2022/04/28 18:44:26;;;;;;;14.53;8.38;;;;;;;12.09;47.25;99957.94;4279573;81;21114;-89
2022/04/28 18:47:46;;;;;;;23.92;10.55;;;;;;;11.60;48.54;99967.84;4273878;81;21483;-92
2022/04/28 18:53:48;;;;;;;27.10;13.20;;;;;;;11.45;49.51;99968.66;4192220;83;21015;-91
2022/04/28 18:59:52;;;;;;;32.58;16.00;;;;;;;11.30;50.09;99989.25;4287617;81;21084;-89
2022/04/28 19:05:54;;;;;;;25.08;12.70;;;;;;;11.07;50.47;99991.25;4273375;81;21124;-90
2022/04/28 19:11:57;;;;;;;27.90;14.63;;;;;;;10.92;51.13;99988.51;4273913;81;21096;-91
2022/04/28 19:17:59;;;;;;;26.82;14.53;;;;;;;10.79;51.87;99993.27;4294644;81;21044;-88
2022/04/28 19:24:03;;;;;;;22.07;12.07;;;;;;;10.78;52.51;100004.58;4299509;81;21061;-91
2022/04/28 19:30:08;;;;;;;23.18;11.80;;;;;;;10.73;52.99;100000.73;4312901;81;21060;-91
2022/04/28 19:36:12;;;;;;;22.25;12.82;;;;;;;10.57;53.46;100013.02;4261731;82;21109;-89
2022/04/28 19:42:19;;;;;;;21.57;12.50;;;;;;;10.57;53.97;100004.81;4253170;82;21070;-90
2022/04/28 19:48:21;;;;;;;26.35;13.20;;;;;;;10.52;54.13;100018.75;4250023;82;21116;-89
2022/04/28 19:54:22;;;;;;;24.52;13.93;;;;;;;10.25;54.42;100025.04;4252782;82;21091;-90
2022/04/28 20:00:24;;;;;;;23.05;14.10;;;;;;;10.10;55.62;100024.98;4262734;82;21061;-90
2022/04/28 20:06:27;;;;;;;21.60;12.05;;;;;;;9.96;56.37;100027.27;4240318;82;21115;-92
2022/04/28 20:12:29;;;;;;;27.35;15.70;;;;;;;10.03;57.52;100029.64;4252949;82;21005;-91
2022/04/28 20:18:31;;;;;;;31.77;18.25;;;;;;;9.93;57.13;100030.11;4251537;82;21098;-89
2022/04/28 20:24:36;;;;;;;36.00;20.50;;;;;;;9.76;57.27;100034.47;4261283;82;22268;-91
2022/04/28 20:30:38;;;;;;;32.42;19.67;;;;;;;9.59;57.80;100037.46;4264877;82;20999;-91
2022/04/28 20:36:41;;;;;;;35.85;18.80;;;;;;;9.39;57.98;100039.75;4258599;82;21603;-90
2022/04/28 20:42:44;;;;;;;37.17;19.20;;;;;;;9.18;58.77;100049.41;4262568;82;21059;-90
2022/04/28 20:48:47;;;;;;;30.55;19.07;;;;;;;9.02;58.80;100049.06;4277894;82;21918;-89
2022/04/28 20:54:52;;;;;;;30.85;17.23;;;;;;;8.91;60.02;100058.83;4234685;82;22105;-90
2022/04/28 21:00:53;;;;;;;33.70;18.82;;;;;;;8.67;60.45;100060.92;4270490;82;21056;-88
2022/04/28 21:06:55;;;;;;;31.12;17.80;;;;;;;8.60;60.99;100063.94;4259406;82;21377;-88
2022/04/28 21:12:56;;;;;;;34.27;19.02;;;;;;;8.46;61.00;100067.52;4271724;82;21107;-90
2022/04/28 21:18:58;;;;;;;36.30;18.87;;;;;;;8.36;61.87;100071.49;4267198;82;21067;-91
2022/04/28 21:24:59;;;;;;;28.42;16.73;;;;;;;8.21;61.68;100067.95;4229238;82;21023;-89
2022/04/28 21:31:00;;;;;;;30.88;18.87;;;;;;;8.18;63.31;100074.64;4215175;82;21098;-88
2022/04/28 21:37:03;;;;;;;35.03;19.87;;;;;;;8.17;63.66;100071.69;4216688;82;21031;-90
2022/04/28 21:43:07;;;;;;;34.70;19.25;;;;;;;8.06;63.62;100074.02;4217346;82;21094;-87
2022/04/28 21:49:08;;;;;;;35.60;18.37;;;;;;;7.98;63.86;100074.32;4127928;84;21048;-88
2022/04/28 21:55:11;;;;;;;26.48;16.05;;;;;;;7.83;64.10;100076.80;4130342;84;21123;-89
2022/04/28 22:01:12;;;;;;;36.63;18.55;;;;;;;7.79;64.71;100073.16;4122512;84;21068;-90
2022/04/28 22:13:36;;;;;;;32.67;17.57;;;;;;;7.52;65.21;100072.27;4126228;84;21082;-88
2022/04/28 22:19:37;;;;;;;31.45;16.23;;;;;;;7.38;65.30;100076.59;4126989;84;21078;-90
2022/04/28 22:25:39;;;;;;;32.35;16.45;;;;;;;7.36;66.42;100076.69;4207491;83;21068;-87
2022/04/28 22:31:40;;;;;;;30.75;17.95;;;;;;;7.29;66.42;100083.20;4216195;82;21064;-87
2022/04/28 22:37:45;;;;;;;31.80;17.52;;;;;;;7.23;66.94;100088.59;4224186;83;21123;-88
2022/04/28 22:43:47;;;;;;;35.20;19.98;;;;;;;7.24;67.16;100086.09;4236905;83;21074;-91
2022/04/28 22:49:49;;;;;;;28.25;17.67;;;;;;;7.26;67.19;100087.38;4221877;83;21088;-90
2022/04/28 22:55:51;;;;;;;31.55;17.23;;;;;;;7.26;67.65;100083.30;4215854;83;21440;-91
2022/04/28 23:01:54;;;;;;;38.73;20.57;;;;;;;7.26;68.20;100081.94;4236885;83;21015;-88
2022/04/28 23:07:56;;;;;;;32.88;17.70;;;;;;;7.23;68.12;100083.95;4237586;83;21136;-90
2022/04/28 23:13:58;;;;;;;32.75;17.45;;;;;;;7.07;68.31;100086.16;4233165;83;21066;-90
2022/04/28 23:19:59;;;;;;;35.65;19.20;;;;;;;6.90;68.51;100085.66;4205765;82;21068;-91
2022/04/28 23:26:01;;;;;;;32.60;17.27;;;;;;;6.82;69.42;100088.39;4274191;81;21027;-88
2022/04/28 23:32:08;;;;;;;31.62;18.32;;;;;;;6.72;69.83;100083.30;4287507;81;21050;-87
2022/04/28 23:38:24;;;;;;;38.65;21.17;;;;;;;6.67;70.33;100091.05;4294550;81;21056;-89
2022/04/28 23:44:25;;;;;;;37.60;19.42;;;;;;;6.55;70.03;100090.91;4273259;81;21085;-89
2022/04/28 23:50:27;;;;;;;33.60;18.05;;;;;;;6.46;70.74;100087.95;4231140;83;21064;-90
2022/04/28 23:56:28;;;;;;;37.38;18.15;;;;;;;6.42;71.17;100094.63;4223456;83;21072;-88
